QFA4886 YMAV-YSCB
Flight info
| Callsign | QFA4886 |
|---|---|
| Flight time | 0h 49m |
| Altitude | 29000 |
| Route | JUSTY3 ML H129 DOSEL Y59 EBONY POLI9A |
| Aircraft | B744/H-SDE1FGHIJ1RWXYZ/LB1 |
Departure
| Time | 2026-05-08 04:42 |
|---|---|
| Airport | Melbourne Avalon International Airport (YMAV) |
Arrival
| Time | 2026-05-08 05:31 |
|---|---|
| Airport | Canberra Airport (YSCB) |
| Time | Latitude | Longitude | Altitude | Speed | Heading |
|---|---|---|---|---|---|
| 2026-05-08 04:11 | -38.02738 | 144.47367 | 49 ft | 0 kts | 8° |
| 2026-05-08 04:32 | -38.02740 | 144.47366 | 49 ft | 2 kts | 8° |
| 2026-05-08 04:33 | -38.02767 | 144.47361 | 49 ft | 5 kts | 8° |
| 2026-05-08 04:33 | -38.02798 | 144.47355 | 49 ft | 5 kts | 6° |
| 2026-05-08 04:33 | -38.02825 | 144.47357 | 49 ft | 2 kts | 346° |
| 2026-05-08 04:33 | -38.02827 | 144.47358 | 49 ft | 0 kts | 346° |
| 2026-05-08 04:37 | -38.02803 | 144.47348 | 49 ft | 6 kts | 330° |
| 2026-05-08 04:37 | -38.02775 | 144.47289 | 49 ft | 9 kts | 283° |
| 2026-05-08 04:37 | -38.02763 | 144.47200 | 49 ft | 11 kts | 276° |
| 2026-05-08 04:38 | -38.02756 | 144.47113 | 49 ft | 6 kts | 277° |
| 2026-05-08 04:38 | -38.02754 | 144.47095 | 49 ft | 0 kts | 277° |
| 2026-05-08 04:40 | -38.02751 | 144.47060 | 49 ft | 8 kts | 277° |
| 2026-05-08 04:40 | -38.02746 | 144.47006 | 49 ft | 10 kts | 274° |
| 2026-05-08 04:41 | -38.02747 | 144.46936 | 49 ft | 8 kts | 257° |
| 2026-05-08 04:41 | -38.02796 | 144.46894 | 49 ft | 11 kts | 189° |
| 2026-05-08 04:41 | -38.03007 | 144.46857 | 49 ft | 56 kts | 186° |
| 2026-05-08 04:41 | -38.03578 | 144.46767 | 49 ft | 108 kts | 187° |
| 2026-05-08 04:42 | -38.04458 | 144.46623 | 77 ft | 139 kts | 186° |
| 2026-05-08 04:42 | -38.05501 | 144.46534 | 423 ft | 154 kts | 189° |
| 2026-05-08 04:42 | -38.06531 | 144.46336 | 972 ft | 139 kts | 193° |
| 2026-05-08 04:42 | -38.07554 | 144.46146 | 1349 ft | 151 kts | 187° |
| 2026-05-08 04:43 | -38.08676 | 144.46483 | 1543 ft | 182 kts | 151° |
| 2026-05-08 04:43 | -38.09364 | 144.47993 | 1649 ft | 220 kts | 103° |
| 2026-05-08 04:43 | -38.08976 | 144.49917 | 1688 ft | 240 kts | 51° |
| 2026-05-08 04:43 | -38.07549 | 144.50929 | 2128 ft | 238 kts | 16° |
| 2026-05-08 04:44 | -38.05971 | 144.51576 | 2554 ft | 235 kts | 15° |
| 2026-05-08 04:44 | -38.04404 | 144.52192 | 2939 ft | 241 kts | 15° |
| 2026-05-08 04:44 | -38.02784 | 144.52887 | 3297 ft | 243 kts | 17° |
| 2026-05-08 04:44 | -38.01124 | 144.53634 | 3487 ft | 269 kts | 18° |
| 2026-05-08 04:45 | -37.99323 | 144.54466 | 3700 ft | 278 kts | 18° |
| 2026-05-08 04:45 | -37.97442 | 144.55359 | 4125 ft | 293 kts | 19° |
| 2026-05-08 04:45 | -37.95549 | 144.56254 | 4728 ft | 295 kts | 18° |
| 2026-05-08 04:45 | -37.93600 | 144.57181 | 5439 ft | 295 kts | 14° |
| 2026-05-08 04:46 | -37.91626 | 144.57666 | 6210 ft | 299 kts | 4° |
| 2026-05-08 04:46 | -37.89531 | 144.57984 | 6935 ft | 295 kts | 2° |
| 2026-05-08 04:46 | -37.87462 | 144.58240 | 7661 ft | 303 kts | 1° |
| 2026-05-08 04:46 | -37.85351 | 144.58527 | 8436 ft | 305 kts | 1° |
| 2026-05-08 04:47 | -37.83279 | 144.58787 | 9179 ft | 302 kts | 1° |
| 2026-05-08 04:47 | -37.81168 | 144.59035 | 9867 ft | 309 kts | 1° |
| 2026-05-08 04:47 | -37.78985 | 144.59322 | 10456 ft | 323 kts | 1° |
| 2026-05-08 04:47 | -37.76692 | 144.59629 | 10858 ft | 340 kts | 1° |
| 2026-05-08 04:48 | -37.74285 | 144.59868 | 11220 ft | 356 kts | 1° |
| 2026-05-08 04:48 | -37.71751 | 144.60093 | 11540 ft | 375 kts | 1° |
| 2026-05-08 04:48 | -37.69095 | 144.60324 | 11874 ft | 389 kts | 1° |
| 2026-05-08 04:48 | -37.66364 | 144.60561 | 12410 ft | 395 kts | 1° |
| 2026-05-08 04:49 | -37.63601 | 144.60804 | 13020 ft | 399 kts | 1° |
| 2026-05-08 04:49 | -37.60810 | 144.61053 | 13676 ft | 403 kts | 1° |
| 2026-05-08 04:49 | -37.57990 | 144.61311 | 14364 ft | 409 kts | 1° |
| 2026-05-08 04:49 | -37.55142 | 144.61574 | 15082 ft | 414 kts | 1° |
| 2026-05-08 04:50 | -37.52270 | 144.61926 | 15810 ft | 420 kts | 7° |
| 2026-05-08 04:50 | -37.49485 | 144.63097 | 16522 ft | 430 kts | 26° |
| 2026-05-08 04:50 | -37.47071 | 144.65349 | 17241 ft | 436 kts | 43° |
| 2026-05-08 04:50 | -37.45120 | 144.68302 | 17932 ft | 442 kts | 55° |
| 2026-05-08 04:51 | -37.43505 | 144.71621 | 18604 ft | 449 kts | 61° |
| 2026-05-08 04:51 | -37.42041 | 144.75099 | 19257 ft | 454 kts | 63° |
| 2026-05-08 04:51 | -37.40694 | 144.78721 | 19811 ft | 463 kts | 66° |
| 2026-05-08 04:51 | -37.39760 | 144.82656 | 20345 ft | 473 kts | 78° |
| 2026-05-08 04:52 | -37.39435 | 144.86748 | 21105 ft | 470 kts | 89° |
| 2026-05-08 04:52 | -37.39716 | 144.90877 | 21615 ft | 480 kts | 101° |
| 2026-05-08 04:52 | -37.40456 | 144.94997 | 22207 ft | 485 kts | 99° |
| 2026-05-08 04:52 | -37.40507 | 144.99237 | 22822 ft | 489 kts | 81° |
| 2026-05-08 04:53 | -37.39595 | 145.03329 | 23361 ft | 486 kts | 63° |
| 2026-05-08 04:53 | -37.37828 | 145.06920 | 23848 ft | 480 kts | 48° |
| 2026-05-08 04:53 | -37.35638 | 145.10103 | 24141 ft | 482 kts | 44° |
| 2026-05-08 04:53 | -37.33383 | 145.13223 | 24187 ft | 484 kts | 44° |
| 2026-05-08 04:54 | -37.31148 | 145.16404 | 24129 ft | 485 kts | 45° |
| 2026-05-08 04:54 | -37.28979 | 145.19638 | 24192 ft | 484 kts | 47° |
| 2026-05-08 04:54 | -37.26851 | 145.22920 | 24625 ft | 487 kts | 48° |
| 2026-05-08 04:54 | -37.24735 | 145.26274 | 25095 ft | 498 kts | 49° |
| 2026-05-08 04:55 | -37.22595 | 145.29727 | 25620 ft | 499 kts | 49° |
| 2026-05-08 04:55 | -37.20476 | 145.33137 | 26480 ft | 498 kts | 49° |
| 2026-05-08 04:55 | -37.18352 | 145.36573 | 26886 ft | 508 kts | 49° |
| 2026-05-08 04:55 | -37.16227 | 145.40067 | 27736 ft | 500 kts | 51° |
| 2026-05-08 04:56 | -37.14232 | 145.43605 | 28602 ft | 493 kts | 51° |
| 2026-05-08 04:56 | -37.12233 | 145.47103 | 28993 ft | 490 kts | 51° |
| 2026-05-08 04:56 | -37.10238 | 145.50564 | 29094 ft | 489 kts | 51° |
| 2026-05-08 04:56 | -37.08247 | 145.54011 | 29106 ft | 488 kts | 51° |
| 2026-05-08 04:57 | -37.04280 | 145.60856 | 29104 ft | 496 kts | 51° |
| 2026-05-08 04:57 | -37.02336 | 145.64245 | 29104 ft | 526 kts | 51° |
| 2026-05-08 04:57 | -37.00357 | 145.67664 | 29104 ft | 483 kts | 51° |
| 2026-05-08 04:58 | -36.96405 | 145.74482 | 29104 ft | 484 kts | 51° |
| 2026-05-08 04:58 | -36.92455 | 145.81305 | 29104 ft | 487 kts | 51° |
| 2026-05-08 04:59 | -36.88484 | 145.88175 | 29077 ft | 487 kts | 51° |
| 2026-05-08 04:59 | -36.84518 | 145.95015 | 29103 ft | 484 kts | 50° |
| 2026-05-08 05:00 | -36.80544 | 146.01813 | 29093 ft | 490 kts | 50° |
| 2026-05-08 05:00 | -36.76565 | 146.08629 | 29093 ft | 484 kts | 51° |
| 2026-05-08 05:01 | -36.72594 | 146.15439 | 29105 ft | 483 kts | 50° |
| 2026-05-08 05:01 | -36.68612 | 146.22249 | 29105 ft | 486 kts | 50° |
| 2026-05-08 05:02 | -36.64625 | 146.29035 | 29105 ft | 485 kts | 50° |
| 2026-05-08 05:02 | -36.60639 | 146.35793 | 29105 ft | 483 kts | 50° |
| 2026-05-08 05:03 | -36.56634 | 146.42587 | 29041 ft | 487 kts | 50° |
| 2026-05-08 05:03 | -36.52643 | 146.49382 | 28919 ft | 491 kts | 50° |
| 2026-05-08 05:04 | -36.48642 | 146.56134 | 29040 ft | 482 kts | 50° |
| 2026-05-08 05:04 | -36.44638 | 146.62868 | 28998 ft | 482 kts | 50° |
| 2026-05-08 05:05 | -36.40684 | 146.69520 | 28993 ft | 469 kts | 50° |
| 2026-05-08 05:05 | -36.38766 | 146.72752 | 28878 ft | 463 kts | 50° |
| 2026-05-08 05:05 | -36.36862 | 146.75964 | 28636 ft | 460 kts | 50° |
| 2026-05-08 05:06 | -36.34968 | 146.79155 | 28346 ft | 457 kts | 50° |
| 2026-05-08 05:06 | -36.33103 | 146.82282 | 28064 ft | 455 kts | 50° |
| 2026-05-08 05:06 | -36.31197 | 146.85460 | 27777 ft | 452 kts | 50° |
| 2026-05-08 05:06 | -36.29349 | 146.88539 | 27481 ft | 450 kts | 50° |
| 2026-05-08 05:07 | -36.27470 | 146.91676 | 27201 ft | 452 kts | 50° |
| 2026-05-08 05:07 | -36.25614 | 146.94788 | 26964 ft | 447 kts | 50° |
| 2026-05-08 05:07 | -36.23765 | 146.97878 | 26692 ft | 442 kts | 50° |
| 2026-05-08 05:07 | -36.21922 | 147.00939 | 26422 ft | 441 kts | 50° |
| 2026-05-08 05:08 | -36.20086 | 147.03986 | 26142 ft | 443 kts | 50° |
| 2026-05-08 05:08 | -36.18345 | 147.07150 | 25838 ft | 448 kts | 57° |
| 2026-05-08 05:08 | -36.17037 | 147.10621 | 25640 ft | 443 kts | 66° |
| 2026-05-08 05:08 | -36.15967 | 147.14188 | 25352 ft | 447 kts | 69° |
| 2026-05-08 05:09 | -36.14977 | 147.17833 | 25119 ft | 445 kts | 70° |
| 2026-05-08 05:09 | -36.14023 | 147.21425 | 24890 ft | 437 kts | 70° |
| 2026-05-08 05:09 | -36.13068 | 147.25016 | 24579 ft | 446 kts | 69° |
| 2026-05-08 05:09 | -36.12094 | 147.28608 | 24413 ft | 436 kts | 69° |
| 2026-05-08 05:10 | -36.11111 | 147.32127 | 24161 ft | 433 kts | 69° |
| 2026-05-08 05:10 | -36.09097 | 147.39176 | 23706 ft | 428 kts | 68° |
| 2026-05-08 05:10 | -36.08096 | 147.42661 | 23407 ft | 435 kts | 68° |
| 2026-05-08 05:11 | -36.07094 | 147.46157 | 23248 ft | 427 kts | 68° |
| 2026-05-08 05:11 | -36.06100 | 147.49584 | 23013 ft | 423 kts | 68° |
| 2026-05-08 05:11 | -36.05110 | 147.52999 | 22781 ft | 421 kts | 68° |
| 2026-05-08 05:11 | -36.04125 | 147.56399 | 22551 ft | 421 kts | 68° |
| 2026-05-08 05:12 | -36.03144 | 147.59787 | 22322 ft | 418 kts | 68° |
| 2026-05-08 05:12 | -36.02166 | 147.63164 | 22096 ft | 416 kts | 68° |
| 2026-05-08 05:12 | -36.01194 | 147.66521 | 21872 ft | 415 kts | 68° |
| 2026-05-08 05:12 | -36.00223 | 147.69872 | 21649 ft | 414 kts | 68° |
| 2026-05-08 05:13 | -35.99256 | 147.73207 | 21429 ft | 412 kts | 68° |
| 2026-05-08 05:13 | -35.98292 | 147.76529 | 21212 ft | 410 kts | 68° |
| 2026-05-08 05:13 | -35.97343 | 147.79793 | 20999 ft | 409 kts | 68° |
| 2026-05-08 05:13 | -35.96384 | 147.83091 | 20785 ft | 408 kts | 68° |
| 2026-05-08 05:14 | -35.95428 | 147.86374 | 20573 ft | 406 kts | 68° |
| 2026-05-08 05:14 | -35.94475 | 147.89645 | 20363 ft | 405 kts | 68° |
| 2026-05-08 05:14 | -35.93579 | 147.92718 | 20167 ft | 403 kts | 68° |
| 2026-05-08 05:14 | -35.92643 | 147.95919 | 19964 ft | 402 kts | 68° |
| 2026-05-08 05:15 | -35.91698 | 147.99151 | 19761 ft | 399 kts | 68° |
| 2026-05-08 05:15 | -35.90756 | 148.02370 | 19560 ft | 397 kts | 68° |
| 2026-05-08 05:15 | -35.89815 | 148.05579 | 19359 ft | 397 kts | 68° |
| 2026-05-08 05:15 | -35.88878 | 148.08773 | 19160 ft | 397 kts | 68° |
| 2026-05-08 05:16 | -35.87942 | 148.11959 | 18963 ft | 395 kts | 68° |
| 2026-05-08 05:16 | -35.87014 | 148.15116 | 18693 ft | 389 kts | 68° |
| 2026-05-08 05:16 | -35.86090 | 148.18251 | 18308 ft | 391 kts | 68° |
| 2026-05-08 05:16 | -35.85157 | 148.21389 | 17890 ft | 389 kts | 68° |
| 2026-05-08 05:17 | -35.84234 | 148.24503 | 17558 ft | 384 kts | 68° |
| 2026-05-08 05:17 | -35.83328 | 148.27569 | 17255 ft | 380 kts | 68° |
| 2026-05-08 05:17 | -35.82420 | 148.30634 | 16886 ft | 382 kts | 68° |
| 2026-05-08 05:17 | -35.81511 | 148.33695 | 16505 ft | 380 kts | 68° |
| 2026-05-08 05:18 | -35.80611 | 148.36727 | 16175 ft | 375 kts | 68° |
| 2026-05-08 05:18 | -35.79716 | 148.39743 | 15827 ft | 373 kts | 68° |
| 2026-05-08 05:18 | -35.78823 | 148.42748 | 15445 ft | 374 kts | 68° |
| 2026-05-08 05:18 | -35.77937 | 148.45726 | 15114 ft | 368 kts | 68° |
| 2026-05-08 05:19 | -35.77061 | 148.48666 | 14817 ft | 363 kts | 68° |
| 2026-05-08 05:19 | -35.76186 | 148.51597 | 14467 ft | 365 kts | 68° |
| 2026-05-08 05:19 | -35.75310 | 148.54523 | 14093 ft | 362 kts | 68° |
| 2026-05-08 05:19 | -35.74442 | 148.57424 | 13775 ft | 359 kts | 68° |
| 2026-05-08 05:20 | -35.73582 | 148.60295 | 13464 ft | 357 kts | 68° |
| 2026-05-08 05:20 | -35.72724 | 148.63164 | 13104 ft | 360 kts | 68° |
| 2026-05-08 05:20 | -35.71872 | 148.66029 | 12747 ft | 355 kts | 68° |
| 2026-05-08 05:20 | -35.71030 | 148.68865 | 12442 ft | 352 kts | 68° |
| 2026-05-08 05:21 | -35.70194 | 148.71685 | 12121 ft | 352 kts | 68° |
| 2026-05-08 05:21 | -35.69359 | 148.74494 | 11756 ft | 350 kts | 68° |
| 2026-05-08 05:21 | -35.68530 | 148.77283 | 11431 ft | 346 kts | 68° |
| 2026-05-08 05:21 | -35.67710 | 148.80041 | 11139 ft | 343 kts | 68° |
| 2026-05-08 05:22 | -35.66891 | 148.82790 | 10829 ft | 342 kts | 68° |
| 2026-05-08 05:22 | -35.66094 | 148.85474 | 10718 ft | 327 kts | 68° |
| 2026-05-08 05:22 | -35.65333 | 148.88047 | 10597 ft | 314 kts | 68° |
| 2026-05-08 05:22 | -35.64601 | 148.90516 | 10453 ft | 303 kts | 67° |
| 2026-05-08 05:23 | -35.63883 | 148.92932 | 10231 ft | 300 kts | 67° |
| 2026-05-08 05:23 | -35.63164 | 148.95335 | 9932 ft | 302 kts | 67° |
| 2026-05-08 05:23 | -35.62424 | 148.97798 | 9540 ft | 310 kts | 67° |
| 2026-05-08 05:23 | -35.61668 | 149.00306 | 9177 ft | 314 kts | 67° |
| 2026-05-08 05:24 | -35.60914 | 149.02804 | 8815 ft | 307 kts | 67° |
| 2026-05-08 05:24 | -35.60191 | 149.05211 | 8457 ft | 295 kts | 67° |
| 2026-05-08 05:24 | -35.59496 | 149.07497 | 8110 ft | 277 kts | 66° |
| 2026-05-08 05:24 | -35.58820 | 149.09637 | 7781 ft | 263 kts | 65° |
| 2026-05-08 05:25 | -35.58163 | 149.11684 | 7468 ft | 251 kts | 65° |
| 2026-05-08 05:25 | -35.57533 | 149.13637 | 7139 ft | 244 kts | 65° |
| 2026-05-08 05:25 | -35.56913 | 149.15553 | 6737 ft | 238 kts | 65° |
| 2026-05-08 05:25 | -35.56150 | 149.17211 | 6566 ft | 216 kts | 44° |
| 2026-05-08 05:26 | -35.55038 | 149.18340 | 6348 ft | 201 kts | 26° |
| 2026-05-08 05:26 | -35.53812 | 149.19088 | 6281 ft | 196 kts | 16° |
| 2026-05-08 05:26 | -35.52496 | 149.19464 | 6082 ft | 193 kts | 358° |
| 2026-05-08 05:26 | -35.51167 | 149.19500 | 5778 ft | 186 kts | 354° |
| 2026-05-08 05:27 | -35.49907 | 149.19481 | 5470 ft | 181 kts | 354° |
| 2026-05-08 05:27 | -35.48644 | 149.19458 | 5199 ft | 179 kts | 354° |
| 2026-05-08 05:27 | -35.47805 | 149.19451 | 5029 ft | 177 kts | 354° |
| 2026-05-08 05:27 | -35.46582 | 149.19448 | 4790 ft | 175 kts | 354° |
| 2026-05-08 05:28 | -35.45370 | 149.19445 | 4557 ft | 174 kts | 354° |
| 2026-05-08 05:28 | -35.44192 | 149.19445 | 4343 ft | 174 kts | 354° |
| 2026-05-08 05:28 | -35.42995 | 149.19445 | 4110 ft | 170 kts | 354° |
| 2026-05-08 05:28 | -35.41829 | 149.19447 | 3868 ft | 162 kts | 354° |
| 2026-05-08 05:29 | -35.40653 | 149.19449 | 3675 ft | 174 kts | 354° |
| 2026-05-08 05:29 | -35.39425 | 149.19457 | 3444 ft | 173 kts | 354° |
| 2026-05-08 05:29 | -35.38243 | 149.19456 | 3218 ft | 168 kts | 354° |
| 2026-05-08 05:29 | -35.37073 | 149.19452 | 2994 ft | 168 kts | 354° |
| 2026-05-08 05:30 | -35.35898 | 149.19447 | 2758 ft | 168 kts | 354° |
| 2026-05-08 05:30 | -35.34730 | 149.19443 | 2525 ft | 167 kts | 354° |
| 2026-05-08 05:30 | -35.33574 | 149.19444 | 2309 ft | 165 kts | 355° |
| 2026-05-08 05:30 | -35.32429 | 149.19448 | 2099 ft | 163 kts | 355° |
| 2026-05-08 05:31 | -35.31274 | 149.19443 | 1909 ft | 163 kts | 357° |
| 2026-05-08 05:31 | -35.30270 | 149.19445 | 1900 ft | 123 kts | 360° |
| 2026-05-08 05:31 | -35.29588 | 149.19444 | 1900 ft | 75 kts | 359° |
| 2026-05-08 05:31 | -35.29285 | 149.19443 | 1900 ft | 23 kts | 0° |
| 2026-05-08 05:32 | -35.29169 | 149.19444 | 1900 ft | 12 kts | 358° |
| 2026-05-08 05:32 | -35.29112 | 149.19422 | 1900 ft | 6 kts | 336° |
| 2026-05-08 05:32 | -35.29076 | 149.19447 | 1900 ft | 7 kts | 101° |
| 2026-05-08 05:32 | -35.29119 | 149.19471 | 1900 ft | 9 kts | 193° |
| 2026-05-08 05:33 | -35.29187 | 149.19452 | 1900 ft | 12 kts | 188° |
| 2026-05-08 05:33 | -35.29284 | 149.19445 | 1900 ft | 16 kts | 180° |
| 2026-05-08 05:33 | -35.29402 | 149.19445 | 1900 ft | 18 kts | 180° |
| 2026-05-08 05:33 | -35.29529 | 149.19445 | 1900 ft | 18 kts | 180° |
| 2026-05-08 05:34 | -35.29657 | 149.19444 | 1900 ft | 18 kts | 180° |
| 2026-05-08 05:34 | -35.29787 | 149.19445 | 1900 ft | 19 kts | 178° |
| 2026-05-08 05:34 | -35.29926 | 149.19447 | 1900 ft | 21 kts | 181° |
| 2026-05-08 05:34 | -35.30077 | 149.19443 | 1900 ft | 23 kts | 181° |
| 2026-05-08 05:35 | -35.30154 | 149.19441 | 1900 ft | 7 kts | 195° |
| 2026-05-08 05:35 | -35.30178 | 149.19413 | 1900 ft | 6 kts | 265° |
| 2026-05-08 05:35 | -35.30164 | 149.19341 | 1900 ft | 10 kts | 290° |
| 2026-05-08 05:35 | -35.30157 | 149.19255 | 1900 ft | 11 kts | 219° |
| 2026-05-08 05:36 | -35.30251 | 149.19238 | 1900 ft | 14 kts | 182° |
| 2026-05-08 05:36 | -35.30320 | 149.19236 | 1900 ft | 13 kts | 179° |
| 2026-05-08 05:36 | -35.30433 | 149.19238 | 1900 ft | 18 kts | 179° |
| 2026-05-08 05:36 | -35.30565 | 149.19238 | 1900 ft | 18 kts | 180° |
| 2026-05-08 05:37 | -35.30677 | 149.19239 | 1900 ft | 15 kts | 180° |
| 2026-05-08 05:37 | -35.30764 | 149.19239 | 1900 ft | 10 kts | 180° |
| 2026-05-08 05:37 | -35.30846 | 149.19239 | 1900 ft | 14 kts | 180° |
| 2026-05-08 05:37 | -35.30957 | 149.19240 | 1900 ft | 18 kts | 180° |
| 2026-05-08 05:38 | -35.31090 | 149.19240 | 1900 ft | 17 kts | 180° |
| 2026-05-08 05:38 | -35.31161 | 149.19240 | 1900 ft | 5 kts | 196° |
| 2026-05-08 05:38 | -35.31184 | 149.19224 | 1900 ft | 2 kts | 241° |
| 2026-05-08 05:38 | -35.31187 | 149.19196 | 1900 ft | 4 kts | 275° |
| 2026-05-08 05:39 | -35.31187 | 149.19194 | 1900 ft | 0 kts | 275° |